createdAt,value
2018-06-24T00:00:04.917Z,9.10
2018-06-24T00:02:33.618Z,7.93
2018-06-24T00:05:02.318Z,8.37
2018-06-24T00:07:31.042Z,10.33
2018-06-24T00:09:59.768Z,7.03
2018-06-24T00:12:28.482Z,10.63
2018-06-24T00:14:57.173Z,8.13
2018-06-24T00:17:25.886Z,11.67
2018-06-24T00:19:54.225Z,8.83
2018-06-24T00:22:22.917Z,8.93
2018-06-24T00:24:51.678Z,8.87
2018-06-24T00:27:20.407Z,7.17
2018-06-24T00:29:49.123Z,9.10
2018-06-24T00:32:17.824Z,7.07
2018-06-24T00:34:46.484Z,8.87
2018-06-24T00:37:15.262Z,8.10
2018-06-24T00:39:43.918Z,7.80
2018-06-24T00:42:12.683Z,7.40
2018-06-24T00:44:41.382Z,10.60
2018-06-24T00:47:10.107Z,9.20
2018-06-24T00:49:38.829Z,9.07
2018-06-24T00:52:07.529Z,8.17
2018-06-24T00:54:36.329Z,10.30
2018-06-24T00:57:05.020Z,7.73
2018-06-24T00:59:44.891Z,8.47
2018-06-24T01:02:13.572Z,8.90
2018-06-24T01:04:42.590Z,10.73
2018-06-24T01:07:11.334Z,7.80
2018-06-24T01:09:40.021Z,9.70
2018-06-24T01:12:08.763Z,11.30
2018-06-24T01:14:37.494Z,6.93
2018-06-24T01:17:06.232Z,13.93
2018-06-24T01:19:34.918Z,8.03
2018-06-24T01:22:03.637Z,8.30
2018-06-24T01:24:32.374Z,8.80
2018-06-24T01:27:01.058Z,9.07
2018-06-24T01:29:29.754Z,11.17
2018-06-24T01:31:58.446Z,8.03
2018-06-24T01:34:27.165Z,10.07
2018-06-24T01:36:55.834Z,7.80
2018-06-24T01:39:24.515Z,10.50
2018-06-24T01:41:53.214Z,9.90
2018-06-24T01:44:21.903Z,8.60
2018-06-24T01:46:50.664Z,9.33
2018-06-24T01:49:19.392Z,7.40
2018-06-24T01:51:48.126Z,9.17
2018-06-24T01:54:16.807Z,11.30
2018-06-24T01:56:45.480Z,10.13
2018-06-24T01:59:14.218Z,7.93
2018-06-24T02:01:42.912Z,13.13
2018-06-24T02:04:11.630Z,9.23
2018-06-24T02:06:40.331Z,10.73
2018-06-24T02:09:11.605Z,13.73
2018-06-24T02:11:40.387Z,9.77
2018-06-24T02:14:09.139Z,8.37
2018-06-24T02:16:38.246Z,8.67
2018-06-24T02:19:07.961Z,8.33
2018-06-24T02:21:36.675Z,8.87
2018-06-24T02:24:05.526Z,8.63
2018-06-24T02:26:34.886Z,11.00
2018-06-24T02:29:05.604Z,9.60
2018-06-24T02:31:34.558Z,12.00
2018-06-24T02:34:03.261Z,14.17
2018-06-24T02:36:31.963Z,10.97
2018-06-24T02:39:00.666Z,11.70
2018-06-24T02:41:29.371Z,10.83
2018-06-24T02:43:58.120Z,9.30
2018-06-24T02:46:26.807Z,9.90
2018-06-24T02:48:55.546Z,9.70
2018-06-24T02:51:24.254Z,9.57
2018-06-24T02:53:52.953Z,9.07
2018-06-24T02:56:21.671Z,13.00
2018-06-24T02:58:50.354Z,9.23
2018-06-24T03:01:19.078Z,9.63
2018-06-24T03:03:47.795Z,10.43
2018-06-24T03:06:16.629Z,10.23
2018-06-24T03:08:45.387Z,10.57
2018-06-24T03:11:14.106Z,8.70
2018-06-24T03:13:42.810Z,10.37
2018-06-24T03:16:11.531Z,11.07
2018-06-24T03:18:40.314Z,13.93
2018-06-24T03:21:09.040Z,11.67
2018-06-24T03:23:37.757Z,11.30
2018-06-24T03:26:06.444Z,12.83
2018-06-24T03:28:35.155Z,9.97
2018-06-24T03:31:03.934Z,9.47
2018-06-24T03:33:38.828Z,10.23
2018-06-24T03:36:07.516Z,9.70
2018-06-24T03:38:36.266Z,12.07
2018-06-24T03:41:05.055Z,10.20
2018-06-24T03:43:33.725Z,10.30
2018-06-24T03:46:02.434Z,13.00
2018-06-24T03:48:31.129Z,11.40
2018-06-24T03:50:59.817Z,9.37
2018-06-24T03:53:28.546Z,12.80
2018-06-24T03:55:57.234Z,9.80
2018-06-24T03:58:25.969Z,8.97
2018-06-24T04:00:54.676Z,11.43
2018-06-24T04:03:23.335Z,9.93
2018-06-24T04:05:52.074Z,13.40
2018-06-24T04:08:20.776Z,9.77
2018-06-24T04:10:49.505Z,13.10
2018-06-24T04:13:18.219Z,9.37
2018-06-24T04:15:46.912Z,9.13
2018-06-24T04:18:15.702Z,10.23
2018-06-24T04:20:44.417Z,11.10
2018-06-24T04:23:13.562Z,11.03
2018-06-24T04:25:42.261Z,9.77
2018-06-24T04:28:10.972Z,10.90
2018-06-24T04:30:39.659Z,8.53
2018-06-24T04:33:08.354Z,10.53
2018-06-24T04:35:37.099Z,10.47
2018-06-24T04:38:06.092Z,11.13
2018-06-24T04:40:34.777Z,10.30
2018-06-24T04:43:03.527Z,10.33
2018-06-24T04:45:32.206Z,9.73
2018-06-24T04:48:00.910Z,9.07
2018-06-24T04:50:29.656Z,12.40
2018-06-24T04:52:58.400Z,12.23
2018-06-24T04:55:27.146Z,10.27
2018-06-24T04:57:55.841Z,9.87
2018-06-24T05:00:24.542Z,9.97
2018-06-24T05:02:53.238Z,10.97
2018-06-24T05:05:21.965Z,10.00
2018-06-24T05:07:50.820Z,16.40
2018-06-24T05:10:19.708Z,10.27
2018-06-24T05:12:48.494Z,12.80
2018-06-24T05:15:17.212Z,9.97
2018-06-24T05:17:45.918Z,10.37
2018-06-24T05:20:14.654Z,10.27
2018-06-24T05:22:43.354Z,12.77
2018-06-24T05:25:12.079Z,9.67
2018-06-24T05:27:40.894Z,9.47
2018-06-24T05:30:09.550Z,10.50
2018-06-24T05:32:38.272Z,11.53
2018-06-24T05:35:07.058Z,12.37
2018-06-24T05:37:35.807Z,11.07
2018-06-24T05:40:04.573Z,12.03
2018-06-24T05:42:33.259Z,9.73
2018-06-24T05:45:02.000Z,9.73
2018-06-24T05:47:31.041Z,9.83
2018-06-24T05:49:59.806Z,12.47
2018-06-24T05:52:28.495Z,9.17
2018-06-24T05:54:57.334Z,10.37
2018-06-24T05:57:27.293Z,9.23
2018-06-24T05:59:56.189Z,10.63
2018-06-24T06:02:24.907Z,8.93
2018-06-24T06:04:53.639Z,11.23
2018-06-24T06:07:22.318Z,11.93
2018-06-24T06:09:51.335Z,12.60
2018-06-24T06:12:20.082Z,12.50
2018-06-24T06:14:49.011Z,11.17
2018-06-24T06:17:17.730Z,12.47
2018-06-24T06:19:46.444Z,12.23
2018-06-24T06:22:15.210Z,10.33
2018-06-24T06:24:43.962Z,9.53
2018-06-24T06:27:12.693Z,9.77
2018-06-24T06:29:41.365Z,10.97
2018-06-24T06:32:10.161Z,11.87
2018-06-24T06:34:38.898Z,9.83
2018-06-24T06:37:07.592Z,9.87
2018-06-24T06:39:36.333Z,8.93
2018-06-24T06:42:05.168Z,8.90
2018-06-24T06:44:33.854Z,9.30
2018-06-24T06:47:02.594Z,8.80
2018-06-24T06:49:31.300Z,10.27
2018-06-24T06:52:00.100Z,8.80
2018-06-24T06:54:29.212Z,11.93
2018-06-24T06:56:58.482Z,8.90
2018-06-24T06:59:27.534Z,11.27
2018-06-24T07:01:56.264Z,7.93
2018-06-24T07:04:25.025Z,9.13
2018-06-24T07:06:53.761Z,8.27
2018-06-24T07:09:22.496Z,8.77
2018-06-24T07:11:51.500Z,8.90
2018-06-24T07:14:20.233Z,10.70
2018-06-24T07:16:49.382Z,8.23
2018-06-24T07:19:18.242Z,7.77
2018-06-24T07:21:48.939Z,10.47
2018-06-24T07:24:17.635Z,9.07
2018-06-24T07:26:46.448Z,9.90
2018-06-24T07:29:15.182Z,10.07
2018-06-24T07:31:43.888Z,9.07
2018-06-24T07:34:12.602Z,9.33
2018-06-24T07:36:41.365Z,9.97
2018-06-24T07:39:11.004Z,8.50
2018-06-24T07:41:39.761Z,8.67
2018-06-24T07:44:08.462Z,9.77
2018-06-24T07:46:37.231Z,10.40
2018-06-24T07:49:09.561Z,13.13
2018-06-24T07:51:38.425Z,8.77
2018-06-24T07:54:07.221Z,8.70
2018-06-24T07:56:35.898Z,9.87
2018-06-24T07:59:04.616Z,8.70
2018-06-24T08:01:50.578Z,9.50
2018-06-24T08:04:19.302Z,9.33
2018-06-24T08:06:48.078Z,9.77
2018-06-24T08:12:16.146Z,9.90
2018-06-24T08:14:45.080Z,9.73
2018-06-24T08:17:13.739Z,9.43
2018-06-24T08:19:42.449Z,9.63
2018-06-24T08:22:11.153Z,9.23
2018-06-24T08:24:39.904Z,9.50
2018-06-24T08:27:08.585Z,10.00
2018-06-24T08:29:37.314Z,9.03
2018-06-24T08:32:06.046Z,10.90
2018-06-24T08:34:34.772Z,11.00
2018-06-24T08:37:03.519Z,9.57
2018-06-24T08:39:32.237Z,8.93
2018-06-24T08:42:00.954Z,8.70
2018-06-24T08:44:29.658Z,8.90
2018-06-24T08:46:58.339Z,10.60
2018-06-24T08:49:27.070Z,11.03
2018-06-24T08:51:55.778Z,8.97
2018-06-24T08:54:24.510Z,9.37
2018-06-24T08:56:53.315Z,9.10
2018-06-24T08:59:21.990Z,8.83
2018-06-24T09:01:50.716Z,9.23
2018-06-24T09:04:19.453Z,8.87
2018-06-24T09:06:48.349Z,8.03
2018-06-24T09:09:17.071Z,7.07
2018-06-24T09:11:45.754Z,6.93
2018-06-24T09:14:14.485Z,10.57
2018-06-24T09:16:45.078Z,7.40
2018-06-24T09:19:13.798Z,8.43
2018-06-24T09:21:42.551Z,11.17
2018-06-24T09:24:11.300Z,6.03
2018-06-24T09:26:40.001Z,8.80
2018-06-24T09:29:08.681Z,5.50
2018-06-24T09:31:37.411Z,6.13
2018-06-24T09:34:07.207Z,6.20
2018-06-24T09:36:36.973Z,4.70
2018-06-24T09:39:09.504Z,5.37
2018-06-24T09:41:48.517Z,6.17
2018-06-24T09:44:17.188Z,6.00
2018-06-24T09:46:45.879Z,5.90
2018-06-24T09:49:14.546Z,6.90
2018-06-24T09:51:43.233Z,9.57
2018-06-24T09:54:11.949Z,6.50
2018-06-24T09:56:46.836Z,5.70
2018-06-24T09:59:15.526Z,7.30
2018-06-24T10:01:44.206Z,4.80
2018-06-24T10:04:12.926Z,5.20
2018-06-24T10:06:41.648Z,6.43
2018-06-24T10:09:11.345Z,7.73
2018-06-24T10:11:40.058Z,6.67
2018-06-24T10:14:08.750Z,4.90
2018-06-24T10:16:37.465Z,4.87
2018-06-24T10:19:06.274Z,5.67
2018-06-24T10:21:34.942Z,5.70
2018-06-24T10:24:09.067Z,5.50
2018-06-24T10:26:37.760Z,4.80
2018-06-24T10:29:08.923Z,5.60
2018-06-24T10:31:41.388Z,5.40
2018-06-24T10:34:11.379Z,12.40
2018-06-24T10:36:40.089Z,5.17
2018-06-24T10:39:10.437Z,7.17
2018-06-24T10:44:32.781Z,4.63
2018-06-24T10:47:01.467Z,4.93
2018-06-24T10:49:30.333Z,5.40
2018-06-24T10:51:59.053Z,4.70
2018-06-24T10:54:27.865Z,5.73
2018-06-24T10:56:56.625Z,4.27
2018-06-24T10:59:25.577Z,3.70
2018-06-24T11:01:54.503Z,4.57
2018-06-24T11:04:23.437Z,5.63
2018-06-24T11:06:52.186Z,5.30
2018-06-24T11:09:20.867Z,5.07
2018-06-24T11:11:49.957Z,4.87
2018-06-24T11:14:18.690Z,4.93
2018-06-24T11:16:47.363Z,4.57
2018-06-24T11:19:16.094Z,3.97
2018-06-24T11:21:44.852Z,4.50
2018-06-24T11:24:13.512Z,5.07
2018-06-24T11:26:42.237Z,60.23
2018-06-24T11:29:10.940Z,256.73
2018-06-24T11:31:39.662Z,142.47
2018-06-24T11:34:08.368Z,39.30
2018-06-24T11:36:37.046Z,19.70
2018-06-24T11:39:11.058Z,6.83
2018-06-24T11:41:39.749Z,6.30
2018-06-24T11:44:24.431Z,5.80
2018-06-24T11:46:53.142Z,4.50
2018-06-24T11:49:21.798Z,5.83
2018-06-24T11:51:50.498Z,5.07
2018-06-24T11:54:19.170Z,4.80
2018-06-24T11:56:47.946Z,4.50
2018-06-24T11:59:16.591Z,20.73
2018-06-24T12:01:45.255Z,7.93
2018-06-24T12:04:14.004Z,10.23
2018-06-24T12:06:42.653Z,4.80
2018-06-24T12:09:13.109Z,4.10
2018-06-24T12:14:37.130Z,7.63
2018-06-24T12:17:06.442Z,4.00
2018-06-24T12:19:35.323Z,5.13
2018-06-24T12:22:04.180Z,4.00
2018-06-24T12:24:32.883Z,3.50
2018-06-24T12:27:01.606Z,3.20
2018-06-24T12:29:30.274Z,3.70
2018-06-24T12:31:58.916Z,4.67
2018-06-24T12:34:27.641Z,3.70
2018-06-24T12:36:56.335Z,2.90
2018-06-24T12:39:25.043Z,5.53
2018-06-24T12:41:53.704Z,4.83
2018-06-24T12:44:22.359Z,3.20
2018-06-24T12:46:53.322Z,5.20
2018-06-24T12:49:21.993Z,3.80
2018-06-24T12:51:50.670Z,2.70
2018-06-24T12:54:19.341Z,4.37
2018-06-24T12:56:47.668Z,3.23
2018-06-24T12:59:16.755Z,3.00
2018-06-24T13:01:45.315Z,2.53
2018-06-24T13:04:14.400Z,3.30
2018-06-24T13:06:43.132Z,2.87
2018-06-24T13:09:11.817Z,3.73
2018-06-24T13:11:40.509Z,3.40
2018-06-24T13:14:09.238Z,3.10
2018-06-24T13:16:37.919Z,4.57
2018-06-24T13:19:06.658Z,2.67
2018-06-24T13:21:35.353Z,2.93
2018-06-24T13:24:04.150Z,3.53
2018-06-24T13:26:32.889Z,3.87
2018-06-24T13:29:01.642Z,2.80
2018-06-24T13:31:30.381Z,3.20
2018-06-24T13:33:59.106Z,3.03
2018-06-24T13:36:27.818Z,2.77
2018-06-24T13:38:56.495Z,6.93
2018-06-24T13:41:25.206Z,3.00
2018-06-24T13:43:53.875Z,3.33
2018-06-24T13:46:22.556Z,3.70
2018-06-24T13:48:51.290Z,5.00
2018-06-24T13:51:19.990Z,3.10
2018-06-24T13:53:48.687Z,2.50
2018-06-24T13:56:17.364Z,2.63
2018-06-24T13:58:46.026Z,6.27
2018-06-24T14:01:14.765Z,2.90
2018-06-24T14:03:43.442Z,3.40
2018-06-24T14:06:12.162Z,4.53
2018-06-24T14:08:40.819Z,3.67
2018-06-24T14:11:09.533Z,3.93
2018-06-24T14:13:38.275Z,4.13
2018-06-24T14:16:07.093Z,2.83
2018-06-24T14:18:35.825Z,4.17
2018-06-24T14:21:04.514Z,3.40
2018-06-24T14:23:33.410Z,3.47
2018-06-24T14:26:01.915Z,3.07
2018-06-24T14:28:30.582Z,3.33
2018-06-24T14:30:59.263Z,3.10
2018-06-24T14:33:27.922Z,4.00
2018-06-24T14:36:01.187Z,3.80
2018-06-24T14:38:29.979Z,3.53
2018-06-24T14:40:58.791Z,3.43
2018-06-24T14:43:28.306Z,3.27
2018-06-24T14:45:57.037Z,3.80
2018-06-24T14:48:25.698Z,3.80
2018-06-24T14:50:54.407Z,3.40
2018-06-24T14:53:23.402Z,4.03
2018-06-24T14:55:52.107Z,4.73
2018-06-24T14:58:20.980Z,3.67
2018-06-24T15:00:49.673Z,3.77
2018-06-24T15:03:18.378Z,4.70
2018-06-24T15:05:47.136Z,3.40
2018-06-24T15:08:15.928Z,3.90
2018-06-24T15:10:44.619Z,3.93
2018-06-24T15:13:13.340Z,4.07
2018-06-24T15:15:42.006Z,3.40
2018-06-24T15:18:10.742Z,3.70
2018-06-24T15:20:39.494Z,3.90
2018-06-24T15:23:08.447Z,9.37
2018-06-24T15:25:37.217Z,3.27
2018-06-24T15:28:05.942Z,5.03
2018-06-24T15:30:34.606Z,4.30
2018-06-24T15:33:03.285Z,4.53
2018-06-24T15:35:32.005Z,4.27
2018-06-24T15:38:00.697Z,4.33
2018-06-24T15:40:29.472Z,7.17
2018-06-24T15:42:57.934Z,4.17
2018-06-24T15:45:27.131Z,4.60
2018-06-24T15:47:56.051Z,4.73
2018-06-24T15:50:24.797Z,7.60
2018-06-24T15:52:53.670Z,4.53
2018-06-24T15:55:28.538Z,5.00
2018-06-24T15:57:57.493Z,4.50
2018-06-24T16:00:26.185Z,4.40
2018-06-24T16:02:55.078Z,5.73
2018-06-24T16:05:23.809Z,5.73
2018-06-24T16:07:52.789Z,4.43
2018-06-24T16:10:21.590Z,5.20
2018-06-24T16:12:50.475Z,13.50
2018-06-24T16:15:19.274Z,8.20
2018-06-24T16:17:48.021Z,7.13
2018-06-24T16:20:17.607Z,5.77
2018-06-24T16:22:46.313Z,6.60
2018-06-24T16:25:15.035Z,5.70
2018-06-24T16:27:43.741Z,6.00
2018-06-24T16:30:12.825Z,6.30
2018-06-24T16:32:45.077Z,6.63
2018-06-24T16:35:13.779Z,7.50
2018-06-24T16:37:42.500Z,6.50
2018-06-24T16:40:11.196Z,7.20
2018-06-24T16:42:39.927Z,7.20
2018-06-24T16:45:08.682Z,7.60
2018-06-24T16:47:42.048Z,7.20
2018-06-24T16:50:10.883Z,8.40
2018-06-24T16:52:39.894Z,8.80
2018-06-24T16:55:08.710Z,7.40
2018-06-24T16:57:38.600Z,6.50
2018-06-24T17:00:07.340Z,6.03
2018-06-24T17:02:36.065Z,6.50
2018-06-24T17:05:04.890Z,14.73
2018-06-24T17:07:33.550Z,6.57
2018-06-24T17:10:02.276Z,12.03
2018-06-24T17:12:30.961Z,7.30
2018-06-24T17:14:59.654Z,6.50
2018-06-24T17:17:28.358Z,7.10
2018-06-24T17:19:57.073Z,6.23
2018-06-24T17:22:25.766Z,7.27
2018-06-24T17:24:54.503Z,9.43
2018-06-24T17:27:23.192Z,8.13
2018-06-24T17:29:51.866Z,6.53
2018-06-24T17:32:20.595Z,6.27
2018-06-24T17:35:12.465Z,5.67
2018-06-24T17:37:41.322Z,6.30
2018-06-24T17:40:10.090Z,6.50
2018-06-24T17:42:49.206Z,7.83
2018-06-24T17:45:19.039Z,6.57
2018-06-24T17:47:48.961Z,7.10
2018-06-24T17:53:34.045Z,6.30
2018-06-24T17:56:02.618Z,6.37
2018-06-24T17:58:31.406Z,7.30
2018-06-24T18:01:00.216Z,7.60
2018-06-24T18:03:28.886Z,7.00
2018-06-24T18:05:57.629Z,8.43
2018-06-24T18:08:26.347Z,6.17
2018-06-24T18:11:17.751Z,7.17
2018-06-24T18:13:46.437Z,6.70
2018-06-24T18:16:15.131Z,8.00
2018-06-24T18:18:58.129Z,6.33
2018-06-24T18:21:26.883Z,7.00
2018-06-24T18:23:55.599Z,6.50
2018-06-24T18:26:24.394Z,6.23
2018-06-24T18:28:53.122Z,6.67
2018-06-24T18:31:21.896Z,6.47
2018-06-24T18:33:50.603Z,25.93
2018-06-24T18:36:19.458Z,5.80
2018-06-24T18:38:48.126Z,7.03
2018-06-24T18:41:16.818Z,5.53
2018-06-24T18:43:45.603Z,5.70
2018-06-24T18:46:15.803Z,6.37
2018-06-24T18:48:44.544Z,7.37
2018-06-24T18:51:13.362Z,6.77
2018-06-24T18:53:42.174Z,6.17
2018-06-24T18:56:12.037Z,6.13
2018-06-24T18:58:40.731Z,6.10
2018-06-24T19:01:21.262Z,5.97
2018-06-24T19:03:49.954Z,5.90
2018-06-24T19:06:18.699Z,7.45
2018-06-24T19:08:47.445Z,6.97
2018-06-24T19:11:16.168Z,6.37
2018-06-24T19:13:44.843Z,5.50
2018-06-24T19:16:13.630Z,5.87
2018-06-24T19:18:42.363Z,5.90
2018-06-24T19:21:12.370Z,5.70
2018-06-24T19:23:41.081Z,6.17
2018-06-24T19:26:09.814Z,6.63
2018-06-24T19:28:48.830Z,5.67
2018-06-24T19:31:17.538Z,5.67
2018-06-24T19:33:46.804Z,7.00
2018-06-24T19:36:15.498Z,6.40
2018-06-24T19:38:45.318Z,6.43
2018-06-24T19:41:13.995Z,6.23
2018-06-24T19:43:42.758Z,6.53
2018-06-24T19:46:11.556Z,7.27
2018-06-24T19:48:40.320Z,7.77
2018-06-24T19:51:09.150Z,6.10
2018-06-24T19:53:38.043Z,7.50
2018-06-24T19:56:06.802Z,6.10
2018-06-24T19:58:35.487Z,6.40
2018-06-24T20:01:04.215Z,6.37
2018-06-24T20:03:32.958Z,5.90
2018-06-24T20:06:01.725Z,8.67
2018-06-24T20:08:30.424Z,11.53
2018-06-24T20:11:03.882Z,6.60
2018-06-24T20:13:32.590Z,7.70
2018-06-24T20:16:01.316Z,9.53
2018-06-24T20:18:33.333Z,7.00
2018-06-24T20:21:02.093Z,7.03
2018-06-24T20:23:30.758Z,6.87
2018-06-24T20:25:59.510Z,6.90
2018-06-24T20:28:28.190Z,7.83
2018-06-24T20:31:08.722Z,7.83
2018-06-24T20:33:37.434Z,9.00
2018-06-24T20:36:06.396Z,7.70
2018-06-24T20:38:35.082Z,9.67
2018-06-24T20:41:07.814Z,11.50
2018-06-24T20:43:36.516Z,7.33
2018-06-24T20:46:05.199Z,7.83
2018-06-24T20:48:33.893Z,8.37
2018-06-24T20:51:02.709Z,7.73
2018-06-24T20:53:31.379Z,8.57
2018-06-24T20:56:00.062Z,9.30
2018-06-24T20:58:28.893Z,9.00
2018-06-24T21:00:57.609Z,9.17
2018-06-24T21:03:26.414Z,9.00
2018-06-24T21:05:55.133Z,10.90
2018-06-24T21:08:23.815Z,9.47
2018-06-24T21:10:52.515Z,11.00
2018-06-24T21:13:22.389Z,9.70
2018-06-24T21:15:51.188Z,8.43
2018-06-24T21:18:19.901Z,9.70
2018-06-24T21:20:48.614Z,12.47
2018-06-24T21:23:17.302Z,10.03
2018-06-24T21:25:46.044Z,10.03
2018-06-24T21:28:14.742Z,10.60
2018-06-24T21:30:43.481Z,10.00
2018-06-24T21:33:12.150Z,8.90
2018-06-24T21:35:40.860Z,10.17
2018-06-24T21:38:09.545Z,8.10
2018-06-24T21:40:38.255Z,9.30
2018-06-24T21:43:06.934Z,8.30
2018-06-24T21:45:35.594Z,9.60
2018-06-24T21:48:04.303Z,10.93
2018-06-24T21:50:38.734Z,8.67
2018-06-24T21:53:07.394Z,9.10
2018-06-24T21:55:36.057Z,8.07
2018-06-24T21:58:04.989Z,8.43
2018-06-24T22:00:33.755Z,8.47
2018-06-24T22:03:02.431Z,7.73
2018-06-24T22:05:31.105Z,7.40
2018-06-24T22:07:59.800Z,7.30
2018-06-24T22:10:28.501Z,8.40
2018-06-24T22:12:57.204Z,6.90
2018-06-24T22:15:25.861Z,7.07
2018-06-24T22:17:54.539Z,6.50
2018-06-24T22:20:23.267Z,6.67
2018-06-24T22:22:51.933Z,7.47
2018-06-24T22:25:20.670Z,7.00
2018-06-24T22:27:49.397Z,7.33
2018-06-24T22:30:18.050Z,6.17
2018-06-24T22:32:46.782Z,6.60
2018-06-24T22:35:15.543Z,5.50
2018-06-24T22:37:44.243Z,7.93
2018-06-24T22:40:12.934Z,6.90
2018-06-24T22:42:41.742Z,6.40
2018-06-24T22:45:10.418Z,7.07
2018-06-24T22:47:39.132Z,8.80
2018-06-24T22:50:07.853Z,7.20
2018-06-24T22:52:36.607Z,8.93
2018-06-24T22:55:05.301Z,7.53
2018-06-24T22:57:33.986Z,6.37
2018-06-24T23:00:18.526Z,6.80
2018-06-24T23:02:47.310Z,8.40
2018-06-24T23:05:15.961Z,7.20
2018-06-24T23:07:45.521Z,7.80
2018-06-24T23:10:14.651Z,7.07
2018-06-24T23:12:43.611Z,6.70
2018-06-24T23:15:12.705Z,8.80
2018-06-24T23:17:41.423Z,7.97
2018-06-24T23:20:10.286Z,6.87
2018-06-24T23:22:38.935Z,6.90
2018-06-24T23:25:07.656Z,6.83
2018-06-24T23:27:59.383Z,6.63
2018-06-24T23:30:28.130Z,7.47
2018-06-24T23:32:56.817Z,6.30
2018-06-24T23:35:25.469Z,6.63
2018-06-24T23:37:54.634Z,9.67
2018-06-24T23:40:23.325Z,7.37
2018-06-24T23:42:51.983Z,6.50
2018-06-24T23:45:20.681Z,7.10
2018-06-24T23:47:49.343Z,6.73
2018-06-24T23:50:18.028Z,7.73
2018-06-24T23:52:46.743Z,7.70
2018-06-24T23:55:15.425Z,7.40
2018-06-24T23:57:44.104Z,10.53
